Resums METAR propers

 

KSJC - San Jose, California, USA
DistÓncia des de l'estaciˇ: NE 14km
Actualitzaciˇ: 18/12/2018 10:53 UTC
SerÚ
SerÚ
 Vent del S
Vent: S 6 km/h
Temperatura: 8°C
Rosada: 7°C
Humitat: 93%
Bar˛metre: 1026.4 hPa
Nuvolositat: SerÚ
Visibilitat: 16 km
2018/12/18 10:53 KSJC 181053Z AUTO 18003KT 10SM CLR 08/07 A3031 RMK AO2 SLP264 T00780067
KNUQ - Moffett Nas/Mtn, California, USA
DistÓncia des de l'estaciˇ: N 14km
Actualitzaciˇ: 18/12/2018 10:56 UTC
SerÚ
SerÚ
 Vent del S
Vent: S 6 km/h
Temperatura: 8°C
Rosada: 7°C
Humitat: 93%
Bar˛metre: 1026.8 hPa
Nuvolositat: SerÚ
Visibilitat: 16 km
2018/12/18 10:56 KNUQ 181056Z 19003KT 10SM CLR 08/07 A3032 RMK AO2 SLP269 T00830067 $
 
KPAO - Palo Alto, California, USA
DistÓncia des de l'estaciˇ: NNO 23km
Actualitzaciˇ: 18/12/2018 04:47 UTC
NO actualitzat
Alguns n˙vols
Alguns n˙vols
 Vent del calm
Vent: Calma
Temperatura: 11°C
Rosada: 9°C
Humitat: 88%
Bar˛metre: 1025.7 hPa
Nuvolositat: Alguns n˙vols
Visibilitat: 16 km
Detalls nuvolositat: Alguns n˙vols 6096 m
2018/12/18 04:47 KPAO 180447Z 00000KT 10SM FEW200 11/09 A3029 RMK LAST
KRHV - San Jose/Reid, California, USA
DistÓncia des de l'estaciˇ: ENE 19km
Actualitzaciˇ: 18/12/2018 05:55 UTC
NO actualitzat
Molt cobert
Molt cobert
 Vent del calm
Vent: Calma
Temperatura: 10°C
Rosada: 9°C
Humitat: 94%
Bar˛metre: 1025.1 hPa
Nuvolositat: Molt cobert
Visibilitat: 16 km
Detalls nuvolositat: Molt cobert 3658 m
2018/12/18 05:55 KRHV 180555Z 00000KT 10SM BKN120 10/09 A3027 RMK LAST
 
KOAK - Oakland, California, USA
DistÓncia des de l'estaciˇ: NNO 50km
Actualitzaciˇ: 18/12/2018 11:07 UTC
Molt cobert
Molt cobert
 Vent del calm
Vent: Calma
Temperatura: 8°C
Rosada: 7°C
Humitat: 93%
Bar˛metre: 1026.4 hPa
Nuvolositat: Molt cobert
Visibilitat: 13 km
Detalls nuvolositat: Molt cobert 610 m
2018/12/18 11:07 KOAK 181107Z 00000KT 8SM BKN020 08/07 A3031 RMK AO2 T00830072
KSQL - San Carlos Airpo, California, USA
DistÓncia des de l'estaciˇ: NO 34km
Actualitzaciˇ: 18/12/2018 11:15 UTC
SerÚ
SerÚ
 Vent del calm
Vent: Calma
Temperatura: 8°C
Rosada: 8°C
Humitat: 100%
Bar˛metre: 1026.4 hPa
Nuvolositat: SerÚ
Visibilitat: 16 km
2018/12/18 11:15 KSQL 181115Z AUTO 00000KT 10SM CLR 08/08 A3031 RMK AO2
 
KSFO - San Francisco, California, USA
DistÓncia des de l'estaciˇ: NO 49km
Actualitzaciˇ: 18/12/2018 10:56 UTC
Molt cobert
Molt cobert
 Vent del calm
Vent: Calma
Temperatura: 9°C
Rosada: 8°C
Humitat: 94%
Bar˛metre: 1026.1 hPa
Nuvolositat: Molt cobert
Visibilitat: 16 km
Detalls nuvolositat: Alguns n˙vols 122 m
Molt cobert 457 m
2018/12/18 10:56 KSFO 181056Z 00000KT 10SM FEW004 BKN015 09/08 A3030 RMK AO2 SLP259 T00940078
KE16 - San Martin, California, USA
DistÓncia des de l'estaciˇ: ESE 43km
Actualitzaciˇ: 18/12/2018 11:10 UTC
Tapat
Tapat
 Vent del calm
Vent: Calma
Temperatura: 6°C
Rosada: 5°C
Humitat: 93%
Bar˛metre: 1027.4 hPa
Nuvolositat: Tapat
Visibilitat: 16 km
Detalls nuvolositat: Tapat 396 m
2018/12/18 11:10 KE16 181110Z AUTO 00000KT 10SM OVC013 06/05 A3034 RMK AO2
 
KWVI - Watsonville, California, USA
DistÓncia des de l'estaciˇ: SSE 44km
Actualitzaciˇ: 18/12/2018 10:53 UTC
SerÚ
SerÚ
 Vent del NNO
Vent: NNO 6 km/h
Temperatura: 8°C
Rosada: 8°C
Humitat: 100%
Bar˛metre: 1026.4 hPa
Nuvolositat: SerÚ
Visibilitat: 16 km
2018/12/18 10:53 KWVI 181053Z AUTO 34003KT 10SM CLR 08/08 A3031 RMK AO2 SLP265 T00780078
KHAF - Half Moon Bay, California, USA
DistÓncia des de l'estaciˇ: ONO 50km
Actualitzaciˇ: 18/12/2018 11:20 UTC
Alguns n˙vols
Alguns n˙vols
 Vent del calm
Vent: Calma
Temperatura: 5°C
Rosada: 5°C
Humitat: 100%
Bar˛metre: 1026.1 hPa
Nuvolositat: Alguns n˙vols
Visibilitat: 11 km
Detalls nuvolositat: Alguns n˙vols 488 m
2018/12/18 11:20 KHAF 181120Z AUTO 00000KT 7SM FEW016 05/05 A3030 RMK AO2
 
KHWD - Hayward, California, USA
DistÓncia des de l'estaciˇ: N 44km
Actualitzaciˇ: 18/12/2018 10:54 UTC
Tapat
Tapat
 Vent del calm
Vent: Calma
Temperatura: 9°C
Rosada: 7°C
Humitat: 87%
Bar˛metre: 1026.4 hPa
Nuvolositat: Tapat
Visibilitat: 16 km
Detalls nuvolositat: Tapat 549 m
2018/12/18 10:54 KHWD 181054Z AUTO 00000KT 10SM OVC018 09/07 A3031 RMK AO2 SLP273 T00890072
KLVK - Livermore, California, USA
DistÓncia des de l'estaciˇ: NNE 51km
Actualitzaciˇ: 18/12/2018 10:53 UTC
Alguns n˙vols
Alguns n˙vols
 Vent del E
Vent: E 6 km/h
Temperatura: 5°C
Rosada: 4°C
Humitat: 93%
Bar˛metre: 1026.4 hPa
Nuvolositat: Alguns n˙vols
Visibilitat: 13 km
Detalls nuvolositat: Alguns n˙vols 396 m
2018/12/18 10:53 KLVK 181053Z AUTO 08003KT 8SM FEW013 05/04 A3031 RMK AO2 SLP264 T00500044